sensor_id;sensor_type;location;lat;lon;timestamp;temperature;humidity
49503;DHT22;35409;48.776;9.204;2023-02-18T00:01:02;12.20;99.90
49503;DHT22;35409;48.776;9.204;2023-02-18T00:03:32;12.20;99.90
49503;DHT22;35409;48.776;9.204;2023-02-18T00:05:58;12.20;99.90
49503;DHT22;35409;48.776;9.204;2023-02-18T00:08:23;12.10;99.90
49503;DHT22;35409;48.776;9.204;2023-02-18T00:10:50;12.10;99.90
49503;DHT22;35409;48.776;9.204;2023-02-18T00:13:15;12.20;99.90
49503;DHT22;35409;48.776;9.204;2023-02-18T00:15:41;12.20;99.90
49503;DHT22;35409;48.776;9.204;2023-02-18T00:18:06;12.10;99.90
49503;DHT22;35409;48.776;9.204;2023-02-18T00:20:32;12.10;99.90
49503;DHT22;35409;48.776;9.204;2023-02-18T00:23:01;12.10;99.90
49503;DHT22;35409;48.776;9.204;2023-02-18T00:25:27;12.10;99.90
49503;DHT22;35409;48.776;9.204;2023-02-18T00:27:52;12.20;99.90
49503;DHT22;35409;48.776;9.204;2023-02-18T00:30:18;12.10;99.90
49503;DHT22;35409;48.776;9.204;2023-02-18T00:32:43;12.10;99.90
49503;DHT22;35409;48.776;9.204;2023-02-18T00:35:09;12.00;99.90
49503;DHT22;35409;48.776;9.204;2023-02-18T00:37:35;12.00;99.90
49503;DHT22;35409;48.776;9.204;2023-02-18T00:40:00;12.10;99.90
49503;DHT22;35409;48.776;9.204;2023-02-18T00:42:26;12.10;99.90
49503;DHT22;35409;48.776;9.204;2023-02-18T00:44:51;12.00;99.90
49503;DHT22;35409;48.776;9.204;2023-02-18T00:47:17;12.00;99.90
49503;DHT22;35409;48.776;9.204;2023-02-18T00:49:42;12.00;99.90
49503;DHT22;35409;48.776;9.204;2023-02-18T00:52:08;12.00;99.90
49503;DHT22;35409;48.776;9.204;2023-02-18T00:54:34;12.00;99.90
49503;DHT22;35409;48.776;9.204;2023-02-18T00:56:59;12.10;99.90
49503;DHT22;35409;48.776;9.204;2023-02-18T00:59:25;12.00;99.90
49503;DHT22;35409;48.776;9.204;2023-02-18T01:01:50;12.00;99.90
49503;DHT22;35409;48.776;9.204;2023-02-18T01:04:16;12.00;99.90
49503;DHT22;35409;48.776;9.204;2023-02-18T01:06:42;12.00;99.90
49503;DHT22;35409;48.776;9.204;2023-02-18T01:09:07;12.00;99.90
49503;DHT22;35409;48.776;9.204;2023-02-18T01:11:34;12.00;99.90
49503;DHT22;35409;48.776;9.204;2023-02-18T01:14:00;12.00;99.90
49503;DHT22;35409;48.776;9.204;2023-02-18T01:16:25;12.00;99.90
49503;DHT22;35409;48.776;9.204;2023-02-18T01:18:51;12.00;99.90
49503;DHT22;35409;48.776;9.204;2023-02-18T01:21:17;12.00;99.90
49503;DHT22;35409;48.776;9.204;2023-02-18T01:23:43;12.00;99.90
49503;DHT22;35409;48.776;9.204;2023-02-18T01:26:10;12.10;99.90
49503;DHT22;35409;48.776;9.204;2023-02-18T01:28:35;12.10;99.90
49503;DHT22;35409;48.776;9.204;2023-02-18T01:31:06;12.00;99.90
49503;DHT22;35409;48.776;9.204;2023-02-18T01:33:32;12.00;99.90
49503;DHT22;35409;48.776;9.204;2023-02-18T01:35:58;12.00;99.90
49503;DHT22;35409;48.776;9.204;2023-02-18T01:38:23;12.00;99.90
49503;DHT22;35409;48.776;9.204;2023-02-18T01:40:50;12.00;99.90
49503;DHT22;35409;48.776;9.204;2023-02-18T01:43:18;11.90;99.90
49503;DHT22;35409;48.776;9.204;2023-02-18T01:45:57;11.80;99.90
49503;DHT22;35409;48.776;9.204;2023-02-18T01:48:29;11.80;99.90
49503;DHT22;35409;48.776;9.204;2023-02-18T01:51:10;11.70;99.90
49503;DHT22;35409;48.776;9.204;2023-02-18T01:53:51;11.80;99.90
49503;DHT22;35409;48.776;9.204;2023-02-18T01:56:41;11.70;99.90
49503;DHT22;35409;48.776;9.204;2023-02-18T01:59:12;11.70;99.90
49503;DHT22;35409;48.776;9.204;2023-02-18T02:01:41;11.60;99.90
49503;DHT22;35409;48.776;9.204;2023-02-18T02:04:08;11.60;99.90
49503;DHT22;35409;48.776;9.204;2023-02-18T02:06:33;11.70;99.90
49503;DHT22;35409;48.776;9.204;2023-02-18T02:09:02;11.70;99.90
49503;DHT22;35409;48.776;9.204;2023-02-18T02:34:48;11.60;99.90
49503;DHT22;35409;48.776;9.204;2023-02-18T02:39:57;11.60;99.90
49503;DHT22;35409;48.776;9.204;2023-02-18T02:50:55;11.50;99.90
49503;DHT22;35409;48.776;9.204;2023-02-18T02:53:30;11.50;99.90
49503;DHT22;35409;48.776;9.204;2023-02-18T02:55:58;11.50;99.90
49503;DHT22;35409;48.776;9.204;2023-02-18T02:58:23;11.50;99.90
49503;DHT22;35409;48.776;9.204;2023-02-18T03:08:53;11.50;99.90
49503;DHT22;35409;48.776;9.204;2023-02-18T03:11:22;11.50;99.90
49503;DHT22;35409;48.776;9.204;2023-02-18T03:16:31;11.60;99.90
49503;DHT22;35409;48.776;9.204;2023-02-18T03:24:16;11.50;99.90
49503;DHT22;35409;48.776;9.204;2023-02-18T03:26:48;11.50;99.90
49503;DHT22;35409;48.776;9.204;2023-02-18T03:29:17;11.50;99.90
49503;DHT22;35409;48.776;9.204;2023-02-18T03:31:46;11.50;99.90
49503;DHT22;35409;48.776;9.204;2023-02-18T03:34:17;11.50;99.90
49503;DHT22;35409;48.776;9.204;2023-02-18T03:36:43;11.40;99.90
49503;DHT22;35409;48.776;9.204;2023-02-18T03:39:17;11.40;99.90
49503;DHT22;35409;48.776;9.204;2023-02-18T03:41:43;11.30;99.90
49503;DHT22;35409;48.776;9.204;2023-02-18T03:44:10;11.30;99.90
49503;DHT22;35409;48.776;9.204;2023-02-18T03:46:39;11.30;99.90
49503;DHT22;35409;48.776;9.204;2023-02-18T03:49:08;11.20;99.90
49503;DHT22;35409;48.776;9.204;2023-02-18T03:51:34;11.10;99.90
49503;DHT22;35409;48.776;9.204;2023-02-18T03:54:00;11.00;99.90
49503;DHT22;35409;48.776;9.204;2023-02-18T03:56:26;10.90;99.90
49503;DHT22;35409;48.776;9.204;2023-02-18T03:58:51;10.90;99.90
49503;DHT22;35409;48.776;9.204;2023-02-18T04:01:17;10.80;99.90
49503;DHT22;35409;48.776;9.204;2023-02-18T04:03:42;10.70;99.90
49503;DHT22;35409;48.776;9.204;2023-02-18T04:06:08;10.60;99.90
49503;DHT22;35409;48.776;9.204;2023-02-18T04:08:34;10.50;99.90
49503;DHT22;35409;48.776;9.204;2023-02-18T04:10:59;10.50;99.90
49503;DHT22;35409;48.776;9.204;2023-02-18T04:13:26;10.50;99.90
49503;DHT22;35409;48.776;9.204;2023-02-18T04:15:51;10.60;99.90
49503;DHT22;35409;48.776;9.204;2023-02-18T04:18:17;10.60;99.90
49503;DHT22;35409;48.776;9.204;2023-02-18T04:20:43;10.70;99.90
49503;DHT22;35409;48.776;9.204;2023-02-18T04:23:10;10.70;99.90
49503;DHT22;35409;48.776;9.204;2023-02-18T04:25:36;10.80;99.90
49503;DHT22;35409;48.776;9.204;2023-02-18T04:28:02;10.90;99.90
49503;DHT22;35409;48.776;9.204;2023-02-18T04:30:27;10.90;99.90
49503;DHT22;35409;48.776;9.204;2023-02-18T04:32:53;11.00;99.90
49503;DHT22;35409;48.776;9.204;2023-02-18T04:35:18;10.90;99.90
49503;DHT22;35409;48.776;9.204;2023-02-18T04:37:44;10.90;99.90
49503;DHT22;35409;48.776;9.204;2023-02-18T04:40:10;10.90;99.90
49503;DHT22;35409;48.776;9.204;2023-02-18T04:42:36;10.80;99.90
49503;DHT22;35409;48.776;9.204;2023-02-18T04:45:02;10.80;99.90
49503;DHT22;35409;48.776;9.204;2023-02-18T04:47:28;10.80;99.90
49503;DHT22;35409;48.776;9.204;2023-02-18T04:49:54;10.70;99.90
49503;DHT22;35409;48.776;9.204;2023-02-18T04:52:19;10.70;99.90
49503;DHT22;35409;48.776;9.204;2023-02-18T04:54:45;10.70;99.90
49503;DHT22;35409;48.776;9.204;2023-02-18T04:57:11;10.60;99.90
49503;DHT22;35409;48.776;9.204;2023-02-18T04:59:37;10.60;99.90
49503;DHT22;35409;48.776;9.204;2023-02-18T05:02:03;10.60;99.90
49503;DHT22;35409;48.776;9.204;2023-02-18T05:04:28;10.50;99.90
49503;DHT22;35409;48.776;9.204;2023-02-18T05:06:54;10.50;99.90
49503;DHT22;35409;48.776;9.204;2023-02-18T05:09:20;10.50;99.90
49503;DHT22;35409;48.776;9.204;2023-02-18T05:11:46;10.50;99.90
49503;DHT22;35409;48.776;9.204;2023-02-18T05:14:15;10.50;99.90
49503;DHT22;35409;48.776;9.204;2023-02-18T05:16:40;10.40;99.90
49503;DHT22;35409;48.776;9.204;2023-02-18T05:19:06;10.40;99.90
49503;DHT22;35409;48.776;9.204;2023-02-18T05:21:32;10.40;99.90
49503;DHT22;35409;48.776;9.204;2023-02-18T05:23:58;10.40;99.90
49503;DHT22;35409;48.776;9.204;2023-02-18T05:26:24;10.30;99.90
49503;DHT22;35409;48.776;9.204;2023-02-18T05:28:49;10.30;99.90
49503;DHT22;35409;48.776;9.204;2023-02-18T05:31:15;10.30;99.90
49503;DHT22;35409;48.776;9.204;2023-02-18T05:33:41;10.30;99.90
49503;DHT22;35409;48.776;9.204;2023-02-18T05:36:07;10.30;99.90
49503;DHT22;35409;48.776;9.204;2023-02-18T05:38:32;10.20;99.90
49503;DHT22;35409;48.776;9.204;2023-02-18T05:40:58;10.20;99.90
49503;DHT22;35409;48.776;9.204;2023-02-18T05:43:24;10.10;99.90
49503;DHT22;35409;48.776;9.204;2023-02-18T05:45:50;10.10;99.90
49503;DHT22;35409;48.776;9.204;2023-02-18T05:48:15;10.00;99.90
49503;DHT22;35409;48.776;9.204;2023-02-18T05:50:41;10.00;99.90
49503;DHT22;35409;48.776;9.204;2023-02-18T05:53:06;10.10;99.90
49503;DHT22;35409;48.776;9.204;2023-02-18T05:55:32;10.10;99.90
49503;DHT22;35409;48.776;9.204;2023-02-18T05:58:03;10.20;99.90
49503;DHT22;35409;48.776;9.204;2023-02-18T06:00:29;10.20;99.90
49503;DHT22;35409;48.776;9.204;2023-02-18T06:02:57;10.20;99.90
49503;DHT22;35409;48.776;9.204;2023-02-18T06:05:24;10.20;99.90
49503;DHT22;35409;48.776;9.204;2023-02-18T06:07:49;10.40;99.90
49503;DHT22;35409;48.776;9.204;2023-02-18T06:10:15;10.40;99.90
49503;DHT22;35409;48.776;9.204;2023-02-18T06:12:42;10.40;99.90
49503;DHT22;35409;48.776;9.204;2023-02-18T06:15:08;10.40;99.90
49503;DHT22;35409;48.776;9.204;2023-02-18T06:17:34;10.40;99.90
49503;DHT22;35409;48.776;9.204;2023-02-18T06:20:00;10.50;99.90
49503;DHT22;35409;48.776;9.204;2023-02-18T06:22:25;10.40;99.90
49503;DHT22;35409;48.776;9.204;2023-02-18T06:24:51;10.50;99.90
49503;DHT22;35409;48.776;9.204;2023-02-18T06:27:16;10.50;99.90
49503;DHT22;35409;48.776;9.204;2023-02-18T06:29:42;10.40;99.90
49503;DHT22;35409;48.776;9.204;2023-02-18T06:32:07;10.40;99.90
49503;DHT22;35409;48.776;9.204;2023-02-18T06:34:33;10.40;99.90
49503;DHT22;35409;48.776;9.204;2023-02-18T06:36:59;10.40;99.90
49503;DHT22;35409;48.776;9.204;2023-02-18T06:39:24;10.40;99.90
49503;DHT22;35409;48.776;9.204;2023-02-18T06:41:50;10.40;99.90
49503;DHT22;35409;48.776;9.204;2023-02-18T06:44:15;10.40;99.90
49503;DHT22;35409;48.776;9.204;2023-02-18T06:46:42;10.50;99.90
49503;DHT22;35409;48.776;9.204;2023-02-18T06:49:07;10.50;99.90
49503;DHT22;35409;48.776;9.204;2023-02-18T06:51:33;10.60;99.90
49503;DHT22;35409;48.776;9.204;2023-02-18T06:54:00;10.70;99.90
49503;DHT22;35409;48.776;9.204;2023-02-18T06:56:26;10.70;99.90
49503;DHT22;35409;48.776;9.204;2023-02-18T06:58:51;10.80;99.90
49503;DHT22;35409;48.776;9.204;2023-02-18T07:01:17;10.80;99.90
49503;DHT22;35409;48.776;9.204;2023-02-18T07:03:42;10.90;99.90
49503;DHT22;35409;48.776;9.204;2023-02-18T07:06:08;11.00;99.90
49503;DHT22;35409;48.776;9.204;2023-02-18T07:08:40;11.00;99.90
49503;DHT22;35409;48.776;9.204;2023-02-18T07:11:06;11.10;99.90
49503;DHT22;35409;48.776;9.204;2023-02-18T07:13:31;11.20;99.90
49503;DHT22;35409;48.776;9.204;2023-02-18T07:15:57;11.20;99.90
49503;DHT22;35409;48.776;9.204;2023-02-18T07:18:23;11.20;99.90
49503;DHT22;35409;48.776;9.204;2023-02-18T07:20:48;11.30;99.90
49503;DHT22;35409;48.776;9.204;2023-02-18T07:23:14;11.40;99.90
49503;DHT22;35409;48.776;9.204;2023-02-18T07:25:40;11.40;99.90
49503;DHT22;35409;48.776;9.204;2023-02-18T07:28:05;11.40;99.90
49503;DHT22;35409;48.776;9.204;2023-02-18T07:30:31;11.50;99.90
49503;DHT22;35409;48.776;9.204;2023-02-18T07:32:56;11.60;99.90
49503;DHT22;35409;48.776;9.204;2023-02-18T07:35:22;11.60;99.90
49503;DHT22;35409;48.776;9.204;2023-02-18T07:37:48;11.60;99.90
49503;DHT22;35409;48.776;9.204;2023-02-18T07:40:17;11.70;99.90
49503;DHT22;35409;48.776;9.204;2023-02-18T07:42:43;11.70;99.90
49503;DHT22;35409;48.776;9.204;2023-02-18T07:45:10;11.80;99.90
49503;DHT22;35409;48.776;9.204;2023-02-18T07:47:36;11.90;99.90
49503;DHT22;35409;48.776;9.204;2023-02-18T07:50:02;11.90;99.90
49503;DHT22;35409;48.776;9.204;2023-02-18T07:52:28;11.90;99.90
49503;DHT22;35409;48.776;9.204;2023-02-18T07:54:53;12.00;99.90
49503;DHT22;35409;48.776;9.204;2023-02-18T07:57:19;12.10;99.90
49503;DHT22;35409;48.776;9.204;2023-02-18T07:59:45;12.10;99.90
49503;DHT22;35409;48.776;9.204;2023-02-18T08:02:22;12.20;99.90
49503;DHT22;35409;48.776;9.204;2023-02-18T08:04:49;12.40;99.90
49503;DHT22;35409;48.776;9.204;2023-02-18T08:07:17;12.50;99.90
49503;DHT22;35409;48.776;9.204;2023-02-18T08:09:43;12.50;99.90
49503;DHT22;35409;48.776;9.204;2023-02-18T08:12:09;12.50;99.90
49503;DHT22;35409;48.776;9.204;2023-02-18T08:14:35;12.50;99.90
49503;DHT22;35409;48.776;9.204;2023-02-18T08:17:00;12.50;99.90
49503;DHT22;35409;48.776;9.204;2023-02-18T08:19:26;12.50;99.90
49503;DHT22;35409;48.776;9.204;2023-02-18T08:21:52;12.60;99.90
49503;DHT22;35409;48.776;9.204;2023-02-18T08:24:17;12.60;99.90
49503;DHT22;35409;48.776;9.204;2023-02-18T08:26:43;12.60;99.90
49503;DHT22;35409;48.776;9.204;2023-02-18T08:29:08;12.70;99.90
49503;DHT22;35409;48.776;9.204;2023-02-18T08:31:34;12.70;99.90
49503;DHT22;35409;48.776;9.204;2023-02-18T08:34:02;12.80;99.90
49503;DHT22;35409;48.776;9.204;2023-02-18T08:36:29;12.90;99.90
49503;DHT22;35409;48.776;9.204;2023-02-18T08:38:55;13.00;99.90
49503;DHT22;35409;48.776;9.204;2023-02-18T08:41:21;13.00;99.90
49503;DHT22;35409;48.776;9.204;2023-02-18T08:43:47;13.10;99.90
49503;DHT22;35409;48.776;9.204;2023-02-18T08:46:14;13.20;99.90
49503;DHT22;35409;48.776;9.204;2023-02-18T08:48:40;13.20;99.90
49503;DHT22;35409;48.776;9.204;2023-02-18T08:51:14;13.30;99.90
49503;DHT22;35409;48.776;9.204;2023-02-18T08:53:40;13.30;99.90
49503;DHT22;35409;48.776;9.204;2023-02-18T08:56:07;13.30;99.90
49503;DHT22;35409;48.776;9.204;2023-02-18T08:58:34;13.40;99.90
49503;DHT22;35409;48.776;9.204;2023-02-18T09:01:05;13.40;99.90
49503;DHT22;35409;48.776;9.204;2023-02-18T09:03:31;13.50;99.90
49503;DHT22;35409;48.776;9.204;2023-02-18T09:05:58;13.50;99.90
49503;DHT22;35409;48.776;9.204;2023-02-18T09:08:24;13.70;99.90
49503;DHT22;35409;48.776;9.204;2023-02-18T09:10:57;13.70;99.90
49503;DHT22;35409;48.776;9.204;2023-02-18T09:13:23;13.80;99.90
49503;DHT22;35409;48.776;9.204;2023-02-18T09:16:10;13.90;99.90
49503;DHT22;35409;48.776;9.204;2023-02-18T09:18:36;13.90;99.90
49503;DHT22;35409;48.776;9.204;2023-02-18T09:21:03;13.90;99.90
49503;DHT22;35409;48.776;9.204;2023-02-18T09:23:30;14.00;99.90
49503;DHT22;35409;48.776;9.204;2023-02-18T09:25:56;14.10;99.90
49503;DHT22;35409;48.776;9.204;2023-02-18T09:28:22;14.20;99.90
49503;DHT22;35409;48.776;9.204;2023-02-18T09:30:48;14.20;99.90
49503;DHT22;35409;48.776;9.204;2023-02-18T09:33:14;14.40;99.90
49503;DHT22;35409;48.776;9.204;2023-02-18T09:35:41;14.50;99.90
49503;DHT22;35409;48.776;9.204;2023-02-18T09:38:13;14.50;99.90
49503;DHT22;35409;48.776;9.204;2023-02-18T09:40:44;14.60;99.90
49503;DHT22;35409;48.776;9.204;2023-02-18T09:43:26;14.50;99.90
49503;DHT22;35409;48.776;9.204;2023-02-18T09:45:54;14.40;99.90
49503;DHT22;35409;48.776;9.204;2023-02-18T09:48:26;14.40;99.90
49503;DHT22;35409;48.776;9.204;2023-02-18T09:50:52;14.30;99.90
49503;DHT22;35409;48.776;9.204;2023-02-18T09:53:18;14.50;99.90
49503;DHT22;35409;48.776;9.204;2023-02-18T09:55:47;14.50;99.90
49503;DHT22;35409;48.776;9.204;2023-02-18T09:58:19;14.50;99.90
49503;DHT22;35409;48.776;9.204;2023-02-18T10:00:48;14.50;99.90
49503;DHT22;35409;48.776;9.204;2023-02-18T10:03:23;14.60;99.90
49503;DHT22;35409;48.776;9.204;2023-02-18T10:05:59;14.50;99.90
49503;DHT22;35409;48.776;9.204;2023-02-18T10:08:29;14.50;99.90
49503;DHT22;35409;48.776;9.204;2023-02-18T10:10:55;14.50;99.90
49503;DHT22;35409;48.776;9.204;2023-02-18T10:13:24;14.50;99.90
49503;DHT22;35409;48.776;9.204;2023-02-18T10:15:51;14.50;99.90
49503;DHT22;35409;48.776;9.204;2023-02-18T10:18:41;14.50;99.90
49503;DHT22;35409;48.776;9.204;2023-02-18T10:21:40;14.40;99.90
49503;DHT22;35409;48.776;9.204;2023-02-18T10:24:05;14.30;99.90
49503;DHT22;35409;48.776;9.204;2023-02-18T10:26:35;14.30;99.90
49503;DHT22;35409;48.776;9.204;2023-02-18T10:29:02;14.40;99.90
49503;DHT22;35409;48.776;9.204;2023-02-18T10:31:33;14.40;99.90
49503;DHT22;35409;48.776;9.204;2023-02-18T10:37:04;14.50;99.90
49503;DHT22;35409;48.776;9.204;2023-02-18T10:50:38;14.80;99.90
49503;DHT22;35409;48.776;9.204;2023-02-18T10:55:47;14.80;99.90
49503;DHT22;35409;48.776;9.204;2023-02-18T11:00:53;14.90;99.90
49503;DHT22;35409;48.776;9.204;2023-02-18T11:03:40;15.00;99.90
49503;DHT22;35409;48.776;9.204;2023-02-18T11:06:24;15.10;99.90
49503;DHT22;35409;48.776;9.204;2023-02-18T11:08:52;15.10;99.90
49503;DHT22;35409;48.776;9.204;2023-02-18T11:11:28;15.20;99.90
49503;DHT22;35409;48.776;9.204;2023-02-18T11:13:58;15.20;99.90
49503;DHT22;35409;48.776;9.204;2023-02-18T11:16:44;15.10;99.90
49503;DHT22;35409;48.776;9.204;2023-02-18T11:19:30;15.10;99.90
49503;DHT22;35409;48.776;9.204;2023-02-18T11:22:07;15.10;99.90
49503;DHT22;35409;48.776;9.204;2023-02-18T11:24:37;15.10;99.90
49503;DHT22;35409;48.776;9.204;2023-02-18T11:27:10;15.10;99.90
49503;DHT22;35409;48.776;9.204;2023-02-18T11:29:38;15.20;99.90
49503;DHT22;35409;48.776;9.204;2023-02-18T11:32:10;15.20;99.90
49503;DHT22;35409;48.776;9.204;2023-02-18T11:34:36;15.30;99.90
49503;DHT22;35409;48.776;9.204;2023-02-18T11:37:09;15.30;99.90
49503;DHT22;35409;48.776;9.204;2023-02-18T11:39:43;15.30;99.90
49503;DHT22;35409;48.776;9.204;2023-02-18T11:42:13;15.30;99.90
49503;DHT22;35409;48.776;9.204;2023-02-18T11:44:47;15.30;99.90
49503;DHT22;35409;48.776;9.204;2023-02-18T11:49:57;15.40;99.90
49503;DHT22;35409;48.776;9.204;2023-02-18T11:52:35;15.40;99.90
49503;DHT22;35409;48.776;9.204;2023-02-18T11:55:16;15.50;99.90
49503;DHT22;35409;48.776;9.204;2023-02-18T11:57:55;15.60;99.90
49503;DHT22;35409;48.776;9.204;2023-02-18T12:00:42;15.60;99.90
49503;DHT22;35409;48.776;9.204;2023-02-18T12:03:42;15.60;99.90
49503;DHT22;35409;48.776;9.204;2023-02-18T12:06:16;15.50;99.90
49503;DHT22;35409;48.776;9.204;2023-02-18T12:11:42;15.60;99.90
49503;DHT22;35409;48.776;9.204;2023-02-18T12:14:18;15.50;99.90
49503;DHT22;35409;48.776;9.204;2023-02-18T12:17:30;15.50;99.90
49503;DHT22;35409;48.776;9.204;2023-02-18T12:22:49;15.50;99.90
49503;DHT22;35409;48.776;9.204;2023-02-18T12:26:05;15.50;99.90
49503;DHT22;35409;48.776;9.204;2023-02-18T12:37:04;15.60;99.90
49503;DHT22;35409;48.776;9.204;2023-02-18T12:39:54;15.60;99.90
49503;DHT22;35409;48.776;9.204;2023-02-18T12:42:46;15.60;99.90
49503;DHT22;35409;48.776;9.204;2023-02-18T12:57:21;15.90;99.90
49503;DHT22;35409;48.776;9.204;2023-02-18T13:08:34;15.90;99.90
49503;DHT22;35409;48.776;9.204;2023-02-18T13:13:58;16.00;99.90
49503;DHT22;35409;48.776;9.204;2023-02-18T13:16:25;15.90;99.90
49503;DHT22;35409;48.776;9.204;2023-02-18T13:19:06;15.80;99.90
49503;DHT22;35409;48.776;9.204;2023-02-18T13:21:36;15.70;99.90
49503;DHT22;35409;48.776;9.204;2023-02-18T13:24:10;15.50;99.90
49503;DHT22;35409;48.776;9.204;2023-02-18T13:26:38;15.40;99.90
49503;DHT22;35409;48.776;9.204;2023-02-18T13:29:28;15.30;99.90
49503;DHT22;35409;48.776;9.204;2023-02-18T13:35:07;15.10;99.90
49503;DHT22;35409;48.776;9.204;2023-02-18T13:40:24;15.00;99.90
49503;DHT22;35409;48.776;9.204;2023-02-18T13:42:53;15.00;99.90
49503;DHT22;35409;48.776;9.204;2023-02-18T13:45:25;15.20;99.90
49503;DHT22;35409;48.776;9.204;2023-02-18T13:47:51;15.30;99.90
49503;DHT22;35409;48.776;9.204;2023-02-18T13:53:11;15.30;99.90
49503;DHT22;35409;48.776;9.204;2023-02-18T13:56:00;15.50;99.90
49503;DHT22;35409;48.776;9.204;2023-02-18T13:58:49;15.70;99.90
49503;DHT22;35409;48.776;9.204;2023-02-18T14:01:36;16.00;99.90
49503;DHT22;35409;48.776;9.204;2023-02-18T14:04:02;16.20;99.60
49503;DHT22;35409;48.776;9.204;2023-02-18T14:06:33;16.40;99.30
49503;DHT22;35409;48.776;9.204;2023-02-18T14:11:44;16.90;98.40
49503;DHT22;35409;48.776;9.204;2023-02-18T14:14:32;17.10;98.00
49503;DHT22;35409;48.776;9.204;2023-02-18T14:19:42;16.90;98.20
49503;DHT22;35409;48.776;9.204;2023-02-18T14:22:26;16.80;98.40
49503;DHT22;35409;48.776;9.204;2023-02-18T14:27:37;16.40;98.80
49503;DHT22;35409;48.776;9.204;2023-02-18T14:30:24;16.20;98.90
49503;DHT22;35409;48.776;9.204;2023-02-18T14:32:58;16.20;99.10
49503;DHT22;35409;48.776;9.204;2023-02-18T14:35:52;16.00;99.20
49503;DHT22;35409;48.776;9.204;2023-02-18T14:38:48;15.90;99.50
49503;DHT22;35409;48.776;9.204;2023-02-18T14:41:43;15.90;99.60
49503;DHT22;35409;48.776;9.204;2023-02-18T14:44:30;15.90;99.70
49503;DHT22;35409;48.776;9.204;2023-02-18T14:47:05;15.90;99.80
49503;DHT22;35409;48.776;9.204;2023-02-18T14:49:43;15.80;99.70
49503;DHT22;35409;48.776;9.204;2023-02-18T14:52:37;15.90;99.80
49503;DHT22;35409;48.776;9.204;2023-02-18T14:55:07;15.90;99.70
49503;DHT22;35409;48.776;9.204;2023-02-18T14:57:50;15.90;99.80
49503;DHT22;35409;48.776;9.204;2023-02-18T15:00:19;15.80;99.90
49503;DHT22;35409;48.776;9.204;2023-02-18T15:02:52;15.70;99.90
49503;DHT22;35409;48.776;9.204;2023-02-18T15:05:23;15.70;99.90
49503;DHT22;35409;48.776;9.204;2023-02-18T15:08:01;15.50;99.90
49503;DHT22;35409;48.776;9.204;2023-02-18T15:11:00;15.30;99.90
49503;DHT22;35409;48.776;9.204;2023-02-18T15:13:30;15.30;99.90
49503;DHT22;35409;48.776;9.204;2023-02-18T15:16:00;15.30;99.90
49503;DHT22;35409;48.776;9.204;2023-02-18T15:18:33;15.20;99.90
49503;DHT22;35409;48.776;9.204;2023-02-18T15:21:26;15.20;99.90
49503;DHT22;35409;48.776;9.204;2023-02-18T15:23:53;15.20;99.90
49503;DHT22;35409;48.776;9.204;2023-02-18T15:26:19;15.10;99.90
49503;DHT22;35409;48.776;9.204;2023-02-18T15:29:03;14.90;99.90
49503;DHT22;35409;48.776;9.204;2023-02-18T15:31:35;14.90;99.90
49503;DHT22;35409;48.776;9.204;2023-02-18T15:34:01;14.90;99.90
49503;DHT22;35409;48.776;9.204;2023-02-18T15:36:26;14.70;99.90
49503;DHT22;35409;48.776;9.204;2023-02-18T15:38:53;14.70;99.90
49503;DHT22;35409;48.776;9.204;2023-02-18T15:41:20;14.60;99.90
49503;DHT22;35409;48.776;9.204;2023-02-18T15:44:01;14.60;99.90
49503;DHT22;35409;48.776;9.204;2023-02-18T15:46:28;14.60;99.90
49503;DHT22;35409;48.776;9.204;2023-02-18T15:48:55;14.50;99.90
49503;DHT22;35409;48.776;9.204;2023-02-18T15:51:27;14.50;99.90
49503;DHT22;35409;48.776;9.204;2023-02-18T15:53:59;14.40;99.90
49503;DHT22;35409;48.776;9.204;2023-02-18T15:56:38;14.40;99.90
49503;DHT22;35409;48.776;9.204;2023-02-18T15:59:34;14.30;99.90
49503;DHT22;35409;48.776;9.204;2023-02-18T16:04:46;14.20;99.90
49503;DHT22;35409;48.776;9.204;2023-02-18T16:09:50;14.20;99.90
49503;DHT22;35409;48.776;9.204;2023-02-18T16:12:28;14.10;99.90
49503;DHT22;35409;48.776;9.204;2023-02-18T16:14:56;14.00;99.90
49503;DHT22;35409;48.776;9.204;2023-02-18T16:17:24;14.00;99.90
49503;DHT22;35409;48.776;9.204;2023-02-18T16:19:55;13.90;99.90
49503;DHT22;35409;48.776;9.204;2023-02-18T16:22:35;13.80;99.90
49503;DHT22;35409;48.776;9.204;2023-02-18T16:27:36;13.70;99.90
49503;DHT22;35409;48.776;9.204;2023-02-18T16:30:16;13.70;99.90
49503;DHT22;35409;48.776;9.204;2023-02-18T16:32:42;13.60;99.90
49503;DHT22;35409;48.776;9.204;2023-02-18T16:35:08;13.60;99.90
49503;DHT22;35409;48.776;9.204;2023-02-18T16:37:34;13.50;99.90
49503;DHT22;35409;48.776;9.204;2023-02-18T16:40:03;13.50;99.90
49503;DHT22;35409;48.776;9.204;2023-02-18T16:42:28;13.40;99.90
49503;DHT22;35409;48.776;9.204;2023-02-18T16:44:54;13.30;99.90
49503;DHT22;35409;48.776;9.204;2023-02-18T16:47:20;13.30;99.90
49503;DHT22;35409;48.776;9.204;2023-02-18T16:49:47;13.20;99.90
49503;DHT22;35409;48.776;9.204;2023-02-18T16:52:15;13.20;99.90
49503;DHT22;35409;48.776;9.204;2023-02-18T16:54:42;13.20;99.90
49503;DHT22;35409;48.776;9.204;2023-02-18T16:57:09;13.20;99.90
49503;DHT22;35409;48.776;9.204;2023-02-18T16:59:37;13.20;99.90
49503;DHT22;35409;48.776;9.204;2023-02-18T17:02:03;13.10;99.90
49503;DHT22;35409;48.776;9.204;2023-02-18T17:04:29;13.10;99.90
49503;DHT22;35409;48.776;9.204;2023-02-18T17:06:54;13.10;99.90
49503;DHT22;35409;48.776;9.204;2023-02-18T17:09:21;13.10;99.90
49503;DHT22;35409;48.776;9.204;2023-02-18T17:11:49;13.20;99.90
49503;DHT22;35409;48.776;9.204;2023-02-18T17:14:17;13.10;99.90
49503;DHT22;35409;48.776;9.204;2023-02-18T17:16:48;13.20;99.90
49503;DHT22;35409;48.776;9.204;2023-02-18T17:19:14;13.20;99.90
49503;DHT22;35409;48.776;9.204;2023-02-18T17:21:41;13.20;99.90
49503;DHT22;35409;48.776;9.204;2023-02-18T17:24:12;13.10;99.90
49503;DHT22;35409;48.776;9.204;2023-02-18T17:26:38;13.10;99.90
49503;DHT22;35409;48.776;9.204;2023-02-18T17:29:04;13.10;99.90
49503;DHT22;35409;48.776;9.204;2023-02-18T17:31:34;13.00;99.90
49503;DHT22;35409;48.776;9.204;2023-02-18T17:34:04;13.10;99.90
49503;DHT22;35409;48.776;9.204;2023-02-18T17:36:30;13.20;99.90
49503;DHT22;35409;48.776;9.204;2023-02-18T17:38:57;13.10;99.90
49503;DHT22;35409;48.776;9.204;2023-02-18T17:41:23;13.10;99.90
49503;DHT22;35409;48.776;9.204;2023-02-18T17:43:48;13.10;99.90
49503;DHT22;35409;48.776;9.204;2023-02-18T17:46:17;13.00;99.90
49503;DHT22;35409;48.776;9.204;2023-02-18T17:48:44;13.00;99.90
49503;DHT22;35409;48.776;9.204;2023-02-18T17:51:30;13.00;99.90
49503;DHT22;35409;48.776;9.204;2023-02-18T17:53:56;12.90;99.90
49503;DHT22;35409;48.776;9.204;2023-02-18T17:56:21;12.80;99.90
49503;DHT22;35409;48.776;9.204;2023-02-18T17:58:47;12.80;99.90
49503;DHT22;35409;48.776;9.204;2023-02-18T18:01:13;12.70;99.90